createdAt,value
2022-09-29T00:00:30.862Z,94.71
2022-09-29T00:01:02.468Z,94.79
2022-09-29T00:01:34.070Z,94.72
2022-09-29T00:02:05.715Z,94.70
2022-09-29T00:02:37.377Z,94.87
2022-09-29T00:03:09.052Z,95.22
2022-09-29T00:03:40.616Z,95.25
2022-09-29T00:04:12.157Z,95.15
2022-09-29T00:04:43.746Z,94.72
2022-09-29T00:05:15.427Z,94.78
2022-09-29T00:05:49.160Z,94.58
2022-09-29T00:06:20.746Z,94.68
2022-09-29T00:06:52.247Z,94.74
2022-09-29T00:07:23.748Z,94.79
2022-09-29T00:07:55.250Z,94.60
2022-09-29T00:08:29.336Z,94.51
2022-09-29T00:09:00.848Z,94.56
2022-09-29T00:09:32.396Z,94.89
2022-09-29T00:10:04.718Z,94.78
2022-09-29T00:10:40.225Z,94.66
2022-09-29T00:11:14.159Z,94.70
2022-09-29T00:11:45.659Z,94.72
2022-09-29T00:12:17.159Z,94.66
2022-09-29T00:12:48.672Z,95.27
2022-09-29T00:13:20.392Z,95.46
2022-09-29T00:13:51.950Z,95.30
2022-09-29T00:14:24.375Z,95.07
2022-09-29T00:14:55.894Z,95.20
2022-09-29T00:15:27.638Z,95.27
2022-09-29T00:16:01.033Z,95.27
2022-09-29T00:16:32.616Z,95.15
2022-09-29T00:17:04.326Z,95.11
2022-09-29T00:17:36.023Z,95.02
2022-09-29T00:18:15.742Z,95.31
2022-09-29T00:18:47.346Z,95.27
2022-09-29T00:19:19.512Z,95.24
2022-09-29T00:19:51.153Z,95.21
2022-09-29T00:20:22.694Z,95.16
2022-09-29T00:21:16.036Z,95.37
2022-09-29T00:21:47.532Z,95.39
2022-09-29T00:22:19.077Z,95.42
2022-09-29T00:22:51.703Z,95.34
2022-09-29T00:23:27.691Z,95.33
2022-09-29T00:24:01.090Z,95.31
2022-09-29T00:24:32.610Z,95.27
2022-09-29T00:25:04.529Z,95.30
2022-09-29T00:25:36.067Z,95.33
2022-09-29T00:26:21.764Z,95.42
2022-09-29T00:26:53.468Z,95.46
2022-09-29T00:27:25.114Z,95.52
2022-09-29T00:27:56.626Z,95.48
2022-09-29T00:28:28.409Z,95.40
2022-09-29T00:29:00.820Z,95.30
2022-09-29T00:29:32.398Z,95.41
2022-09-29T00:30:04.321Z,95.40
2022-09-29T00:30:36.722Z,95.38
2022-09-29T00:31:11.063Z,95.59
2022-09-29T00:31:42.680Z,95.65
2022-09-29T00:32:14.662Z,95.68
2022-09-29T00:32:46.290Z,95.72
2022-09-29T00:33:17.845Z,95.68
2022-09-29T00:33:50.758Z,95.62
2022-09-29T00:34:22.342Z,95.54
2022-09-29T00:34:53.842Z,95.62
2022-09-29T00:35:25.365Z,95.66
2022-09-29T00:35:59.013Z,95.68
2022-09-29T00:36:31.111Z,95.76
2022-09-29T00:37:03.084Z,95.34
2022-09-29T00:37:35.222Z,95.27
2022-09-29T00:38:06.722Z,95.46
2022-09-29T00:38:38.994Z,95.46
2022-09-29T00:39:10.886Z,95.35
2022-09-29T00:39:42.395Z,95.33
2022-09-29T00:40:13.963Z,95.38
2022-09-29T00:40:45.506Z,95.27
2022-09-29T00:41:19.974Z,95.32
2022-09-29T00:41:51.906Z,95.31
2022-09-29T00:42:23.632Z,95.43
2022-09-29T00:42:55.138Z,95.48
2022-09-29T00:43:45.537Z,95.41
2022-09-29T00:44:17.039Z,95.35
2022-09-29T00:44:57.710Z,95.50
2022-09-29T00:45:29.447Z,95.62
2022-09-29T00:46:02.384Z,95.73
2022-09-29T00:46:45.940Z,95.69
2022-09-29T00:47:18.821Z,95.56
2022-09-29T00:47:59.749Z,95.46
2022-09-29T00:48:33.167Z,95.51
2022-09-29T00:49:24.866Z,95.52
2022-09-29T00:50:04.640Z,95.60
2022-09-29T00:50:47.070Z,95.76
2022-09-29T00:51:19.613Z,95.69
2022-09-29T00:52:14.549Z,95.57
2022-09-29T00:53:01.518Z,95.57
2022-09-29T00:53:34.007Z,95.62
2022-09-29T00:54:07.922Z,95.62
2022-09-29T00:54:47.288Z,95.59
2022-09-29T00:55:29.484Z,95.70
2022-09-29T00:56:07.922Z,95.72
2022-09-29T00:56:41.859Z,95.70
2022-09-29T00:57:16.696Z,95.71
2022-09-29T00:58:40.698Z,95.59
2022-09-29T00:59:18.367Z,95.67
2022-09-29T00:59:57.419Z,95.59
2022-09-29T01:00:29.071Z,95.56
2022-09-29T01:01:01.377Z,95.66
2022-09-29T01:01:33.439Z,95.56
2022-09-29T01:02:06.218Z,95.57
2022-09-29T01:02:45.464Z,95.57
2022-09-29T01:03:22.702Z,95.57
2022-09-29T01:04:10.951Z,95.66
2022-09-29T01:04:42.974Z,95.67
2022-09-29T01:05:21.059Z,95.55
2022-09-29T01:06:01.257Z,95.68
2022-09-29T01:06:41.266Z,95.66
2022-09-29T01:07:13.231Z,95.65
2022-09-29T01:07:45.743Z,95.73
2022-09-29T01:09:10.150Z,95.58
2022-09-29T01:09:44.212Z,95.64
2022-09-29T01:10:17.267Z,95.72
2022-09-29T01:10:51.639Z,95.66
2022-09-29T01:11:24.019Z,95.65
2022-09-29T01:11:58.336Z,95.66
2022-09-29T01:12:30.178Z,95.61
2022-09-29T01:13:02.198Z,95.68
2022-09-29T01:13:34.700Z,95.63
2022-09-29T01:14:08.962Z,95.71
2022-09-29T01:14:41.033Z,95.75
2022-09-29T01:15:14.891Z,95.85
2022-09-29T01:15:46.754Z,95.80
2022-09-29T01:16:18.392Z,95.89
2022-09-29T01:16:50.293Z,95.76
2022-09-29T01:17:22.386Z,95.88
2022-09-29T01:17:53.927Z,95.88
2022-09-29T01:18:26.364Z,95.89
2022-09-29T01:19:00.838Z,95.87
2022-09-29T01:19:50.018Z,96.22
2022-09-29T01:20:23.719Z,96.23
2022-09-29T01:21:07.502Z,96.02
2022-09-29T01:22:00.322Z,95.91
2022-09-29T01:22:43.013Z,95.76
2022-09-29T01:23:45.391Z,95.73
2022-09-29T01:24:50.647Z,96.02
2022-09-29T01:25:59.339Z,96.19
2022-09-29T01:26:45.899Z,96.00
2022-09-29T01:27:48.275Z,95.97
2022-09-29T01:28:28.667Z,95.99
2022-09-29T01:29:08.548Z,95.91
2022-09-29T01:29:42.713Z,95.90
2022-09-29T01:30:25.958Z,95.78
2022-09-29T01:31:38.074Z,95.71
2022-09-29T01:32:24.939Z,95.69
2022-09-29T01:33:16.702Z,95.70
2022-09-29T01:34:00.908Z,95.83
2022-09-29T01:35:08.938Z,95.68
2022-09-29T01:36:00.448Z,95.78
2022-09-29T01:36:50.143Z,95.77
2022-09-29T01:37:29.890Z,95.76
2022-09-29T01:38:26.161Z,95.70
2022-09-29T01:39:34.983Z,96.13
2022-09-29T01:40:11.818Z,95.98
2022-09-29T01:40:49.726Z,95.95
2022-09-29T01:41:40.335Z,95.88
2022-09-29T01:42:22.744Z,95.90
2022-09-29T01:43:10.857Z,95.78
2022-09-29T01:44:06.477Z,95.85
2022-09-29T01:44:52.212Z,95.75
2022-09-29T01:45:32.600Z,95.79
2022-09-29T01:46:10.092Z,95.81
2022-09-29T01:46:52.098Z,95.87
2022-09-29T01:47:28.986Z,95.93
2022-09-29T01:48:07.719Z,96.16
2022-09-29T01:48:44.940Z,96.16
2022-09-29T01:49:19.175Z,96.06
2022-09-29T01:49:57.700Z,95.94
2022-09-29T01:50:35.652Z,95.95
2022-09-29T01:51:14.085Z,95.90
2022-09-29T01:52:22.833Z,95.98
2022-09-29T01:53:12.237Z,95.91
2022-09-29T01:53:50.595Z,95.95
2022-09-29T01:54:29.115Z,95.98
2022-09-29T01:55:05.096Z,96.04
2022-09-29T01:55:42.844Z,96.04
2022-09-29T01:56:23.299Z,95.93
2022-09-29T01:57:15.025Z,95.97
2022-09-29T01:58:00.688Z,96.07
2022-09-29T01:59:00.192Z,96.06
2022-09-29T01:59:42.121Z,95.95
2022-09-29T02:01:10.668Z,95.91
2022-09-29T02:01:44.888Z,95.84
2022-09-29T02:02:28.199Z,95.84
2022-09-29T02:03:02.482Z,95.89
2022-09-29T02:03:43.414Z,95.88
2022-09-29T02:04:22.029Z,96.15
2022-09-29T02:04:58.803Z,96.02
2022-09-29T02:05:43.008Z,96.10
2022-09-29T02:06:21.099Z,96.00
2022-09-29T02:07:04.025Z,96.20
2022-09-29T02:07:39.895Z,96.01
2022-09-29T02:08:34.645Z,96.25
2022-09-29T02:09:18.472Z,96.17
2022-09-29T02:09:56.303Z,96.06
2022-09-29T02:10:36.336Z,96.04
2022-09-29T02:11:10.182Z,95.93
2022-09-29T02:11:42.787Z,95.82
2022-09-29T02:12:23.125Z,95.84
2022-09-29T02:12:56.921Z,95.90
2022-09-29T02:13:32.946Z,96.29
2022-09-29T02:14:12.713Z,96.20
2022-09-29T02:14:48.034Z,96.22
2022-09-29T02:15:26.915Z,96.35
2022-09-29T02:16:00.333Z,96.35
2022-09-29T02:16:37.316Z,96.40
2022-09-29T02:17:19.806Z,96.22
2022-09-29T02:17:53.187Z,96.17
2022-09-29T02:18:31.990Z,96.02
2022-09-29T02:19:10.583Z,96.00
2022-09-29T02:19:43.414Z,95.96
2022-09-29T02:20:15.175Z,96.10
2022-09-29T02:20:48.339Z,96.08
2022-09-29T02:21:20.055Z,96.05
2022-09-29T02:21:54.452Z,96.04
2022-09-29T02:22:26.084Z,96.15
2022-09-29T02:22:57.883Z,96.23
2022-09-29T02:23:29.663Z,96.26
2022-09-29T02:24:01.497Z,96.25
2022-09-29T02:24:33.070Z,96.28
2022-09-29T02:25:05.419Z,96.43
2022-09-29T02:25:39.177Z,96.35
2022-09-29T02:26:12.673Z,96.25
2022-09-29T02:26:45.282Z,96.22
2022-09-29T02:27:17.651Z,96.09
2022-09-29T02:27:50.872Z,96.29
2022-09-29T02:28:22.575Z,96.25
2022-09-29T02:28:55.207Z,96.29
2022-09-29T02:29:27.621Z,96.28
2022-09-29T02:29:59.318Z,96.29
2022-09-29T02:30:31.003Z,96.24
2022-09-29T02:31:02.999Z,96.29
2022-09-29T02:31:37.249Z,96.02
2022-09-29T02:32:09.982Z,96.18
2022-09-29T02:32:41.612Z,96.13
2022-09-29T02:33:24.153Z,96.16
2022-09-29T02:33:55.665Z,96.09
2022-09-29T02:34:27.963Z,96.07
2022-09-29T02:34:59.553Z,96.17
2022-09-29T02:36:00.185Z,96.16
2022-09-29T02:37:00.129Z,96.24
2022-09-29T02:37:47.735Z,96.45
2022-09-29T02:38:30.874Z,96.33
2022-09-29T02:39:21.951Z,96.31
2022-09-29T02:40:29.863Z,96.17
2022-09-29T02:41:49.359Z,96.12
2022-09-29T02:42:32.239Z,96.02
2022-09-29T02:43:38.848Z,96.12
2022-09-29T02:44:16.437Z,96.24
2022-09-29T02:44:56.662Z,96.21
2022-09-29T02:45:33.936Z,96.33
2022-09-29T02:46:28.218Z,96.38
2022-09-29T02:46:59.675Z,96.24
2022-09-29T02:47:43.087Z,96.27
2022-09-29T02:48:28.091Z,96.26
2022-09-29T02:49:26.202Z,96.37
2022-09-29T02:50:18.353Z,96.36
2022-09-29T02:50:59.385Z,96.43
2022-09-29T02:51:53.252Z,96.52
2022-09-29T02:52:50.445Z,96.49
2022-09-29T02:53:56.713Z,96.50
2022-09-29T02:54:55.645Z,96.56
2022-09-29T02:56:01.635Z,96.50
2022-09-29T02:56:54.978Z,96.67
2022-09-29T02:57:42.877Z,96.65
2022-09-29T02:58:36.087Z,96.56
2022-09-29T02:59:16.856Z,96.52
2022-09-29T03:00:09.996Z,96.44
2022-09-29T03:00:42.667Z,96.32
2022-09-29T03:01:17.185Z,96.40
2022-09-29T03:01:54.730Z,96.46
2022-09-29T03:02:27.346Z,96.41
2022-09-29T03:02:59.001Z,96.54
2022-09-29T03:03:30.612Z,96.46
2022-09-29T03:04:04.669Z,96.44
2022-09-29T03:04:36.526Z,96.43
2022-09-29T03:05:17.933Z,96.45
2022-09-29T03:05:49.519Z,96.40
2022-09-29T03:06:21.583Z,96.47
2022-09-29T03:06:53.954Z,96.45
2022-09-29T03:07:25.479Z,96.37
2022-09-29T03:07:57.045Z,96.35
2022-09-29T03:08:28.562Z,96.29
2022-09-29T03:09:00.079Z,96.21
2022-09-29T03:09:31.619Z,96.38
2022-09-29T03:10:03.350Z,96.30
2022-09-29T03:10:34.862Z,96.34
2022-09-29T03:11:06.424Z,96.27
2022-09-29T03:11:37.940Z,96.28
2022-09-29T03:12:09.577Z,96.38
2022-09-29T03:12:41.365Z,96.29
2022-09-29T03:13:12.873Z,96.40
2022-09-29T03:13:44.384Z,96.47
2022-09-29T03:14:16.051Z,96.45
2022-09-29T03:14:47.659Z,96.43
2022-09-29T03:15:19.170Z,96.28
2022-09-29T03:15:50.995Z,96.21
2022-09-29T03:16:22.593Z,96.17
2022-09-29T03:16:54.153Z,96.22
2022-09-29T03:17:25.692Z,96.49
2022-09-29T03:17:57.788Z,96.30
2022-09-29T03:18:29.299Z,96.42
2022-09-29T03:19:01.582Z,96.51
2022-09-29T03:19:33.161Z,96.51
2022-09-29T03:20:05.510Z,96.37
2022-09-29T03:20:37.223Z,96.47
2022-09-29T03:21:08.890Z,96.43
2022-09-29T03:21:40.433Z,96.27
2022-09-29T03:22:11.991Z,96.40
2022-09-29T03:22:43.511Z,96.42
2022-09-29T03:23:15.072Z,96.35
2022-09-29T03:23:46.578Z,96.29
2022-09-29T03:24:18.174Z,96.32
2022-09-29T03:24:49.867Z,96.34
2022-09-29T03:25:22.462Z,96.30
2022-09-29T03:25:54.070Z,96.27
2022-09-29T03:26:25.784Z,96.26
2022-09-29T03:26:57.687Z,96.22
2022-09-29T03:27:29.564Z,96.20
2022-09-29T03:28:01.254Z,96.22
2022-09-29T03:28:32.974Z,96.20
2022-09-29T03:29:04.478Z,96.22
2022-09-29T03:29:36.756Z,96.12
2022-09-29T03:30:09.195Z,96.17
2022-09-29T03:30:40.729Z,96.16
2022-09-29T03:31:12.354Z,96.14
2022-09-29T03:31:43.984Z,96.08
2022-09-29T03:32:15.585Z,96.14
2022-09-29T03:32:47.159Z,96.00
2022-09-29T03:33:18.680Z,96.02
2022-09-29T03:33:50.280Z,96.05
2022-09-29T03:34:21.776Z,96.14
2022-09-29T03:34:53.406Z,96.14
2022-09-29T03:35:24.922Z,96.05
2022-09-29T03:35:56.418Z,96.07
2022-09-29T03:36:27.981Z,96.14
2022-09-29T03:36:59.646Z,96.09
2022-09-29T03:37:31.207Z,96.09
2022-09-29T03:38:02.740Z,96.08
2022-09-29T03:38:34.338Z,96.16
2022-09-29T03:39:05.982Z,96.18
2022-09-29T03:39:37.818Z,96.27
2022-09-29T03:40:09.989Z,96.20
2022-09-29T03:40:41.540Z,96.21
2022-09-29T03:41:13.157Z,96.33
2022-09-29T03:41:44.658Z,96.35
2022-09-29T03:42:16.599Z,96.28
2022-09-29T03:42:48.143Z,96.36
2022-09-29T03:43:19.676Z,96.54
2022-09-29T03:43:51.202Z,96.39
2022-09-29T03:44:22.777Z,96.36
2022-09-29T03:44:54.782Z,96.42
2022-09-29T03:45:26.375Z,96.28
2022-09-29T03:45:58.375Z,96.19
2022-09-29T03:46:29.926Z,96.08
2022-09-29T03:47:01.437Z,96.08
2022-09-29T03:47:32.994Z,96.17
2022-09-29T03:48:04.682Z,96.26
2022-09-29T03:48:36.782Z,96.31
2022-09-29T03:49:11.588Z,96.19
2022-09-29T03:49:43.143Z,96.07
2022-09-29T03:50:14.813Z,96.08
2022-09-29T03:50:47.362Z,96.18
2022-09-29T03:51:18.879Z,96.19
2022-09-29T03:51:50.542Z,96.38
2022-09-29T03:52:22.066Z,96.33
2022-09-29T03:52:53.633Z,96.32
2022-09-29T03:53:25.278Z,96.46
2022-09-29T03:53:56.790Z,96.34
2022-09-29T03:54:28.318Z,96.31
2022-09-29T03:54:59.819Z,96.31
2022-09-29T03:55:31.325Z,96.19
2022-09-29T03:56:04.160Z,96.21
2022-09-29T03:56:37.467Z,96.22
2022-09-29T03:57:09.066Z,96.24
2022-09-29T03:57:40.582Z,96.26
2022-09-29T03:58:12.094Z,96.44
2022-09-29T03:58:43.618Z,96.46
2022-09-29T03:59:15.748Z,96.62
2022-09-29T03:59:47.319Z,96.52
2022-09-29T04:00:18.907Z,96.71
2022-09-29T04:00:50.495Z,96.91
2022-09-29T04:01:22.153Z,96.82
2022-09-29T04:01:53.772Z,96.62
2022-09-29T04:02:25.422Z,96.68
2022-09-29T04:02:57.339Z,96.73
2022-09-29T04:03:29.577Z,96.86
2022-09-29T04:04:01.498Z,96.81
2022-09-29T04:04:33.077Z,96.74
2022-09-29T04:05:05.098Z,96.78
2022-09-29T04:05:39.172Z,96.82
2022-09-29T04:06:10.674Z,96.74
2022-09-29T04:06:42.194Z,96.73
2022-09-29T04:07:13.756Z,96.63
2022-09-29T04:07:45.252Z,96.53
2022-09-29T04:08:17.281Z,96.64
2022-09-29T04:08:49.547Z,96.65
2022-09-29T04:09:21.061Z,96.56
2022-09-29T04:09:52.560Z,96.57
2022-09-29T04:10:24.153Z,96.60
2022-09-29T04:10:55.696Z,96.57
2022-09-29T04:11:27.352Z,96.67
2022-09-29T04:11:58.877Z,96.66
2022-09-29T04:12:30.472Z,96.65
2022-09-29T04:13:02.027Z,96.74
2022-09-29T04:13:34.028Z,96.62
2022-09-29T04:14:05.808Z,96.57
2022-09-29T04:14:37.326Z,96.56
2022-09-29T04:15:09.247Z,96.58
2022-09-29T04:15:41.149Z,96.45
2022-09-29T04:16:12.710Z,96.43
2022-09-29T04:16:44.283Z,96.54
2022-09-29T04:17:15.848Z,96.41
2022-09-29T04:17:47.367Z,96.37
2022-09-29T04:18:18.876Z,96.39
2022-09-29T04:18:50.429Z,96.53
2022-09-29T04:19:22.174Z,96.54
2022-09-29T04:19:53.685Z,96.51
2022-09-29T04:20:25.810Z,96.39
2022-09-29T04:21:00.784Z,96.45
2022-09-29T04:21:32.449Z,96.41
2022-09-29T04:22:03.943Z,96.45
2022-09-29T04:22:35.457Z,96.40
2022-09-29T04:23:07.119Z,96.44
2022-09-29T04:23:38.635Z,96.46
2022-09-29T04:24:10.163Z,96.48
2022-09-29T04:24:41.678Z,96.39
2022-09-29T04:25:13.447Z,96.66
2022-09-29T04:25:45.739Z,96.56
2022-09-29T04:26:17.601Z,96.41
2022-09-29T04:26:49.099Z,96.47
2022-09-29T04:27:20.700Z,96.56
2022-09-29T04:27:52.263Z,96.51
2022-09-29T04:28:24.557Z,96.48
2022-09-29T04:28:56.303Z,96.41
2022-09-29T04:29:27.814Z,96.36
2022-09-29T04:29:59.382Z,96.32
2022-09-29T04:30:30.940Z,96.40
2022-09-29T04:31:03.330Z,96.39
2022-09-29T04:31:35.012Z,96.44
2022-09-29T04:32:06.959Z,96.51
2022-09-29T04:32:38.506Z,96.54
2022-09-29T04:33:10.139Z,96.51
2022-09-29T04:33:41.717Z,96.49
2022-09-29T04:34:13.273Z,96.49
2022-09-29T04:34:44.812Z,96.43
2022-09-29T04:35:16.411Z,96.27
2022-09-29T04:35:47.918Z,96.20
2022-09-29T04:36:19.878Z,96.28
2022-09-29T04:36:51.384Z,96.28
2022-09-29T04:37:22.925Z,96.27
2022-09-29T04:37:57.163Z,96.29
2022-09-29T04:38:28.789Z,96.20
2022-09-29T04:39:00.759Z,96.25
2022-09-29T04:39:32.609Z,96.31
2022-09-29T04:40:05.098Z,96.31
2022-09-29T04:40:37.358Z,96.30
2022-09-29T04:41:09.179Z,96.24
2022-09-29T04:41:41.456Z,96.21
2022-09-29T04:42:12.995Z,96.23
2022-09-29T04:42:44.495Z,96.10
2022-09-29T04:43:16.601Z,96.13
2022-09-29T04:43:48.102Z,96.19
2022-09-29T04:44:24.830Z,96.29
2022-09-29T04:44:56.371Z,96.30
2022-09-29T04:45:28.026Z,96.28
2022-09-29T04:46:08.194Z,96.32
2022-09-29T04:46:39.953Z,96.18
2022-09-29T04:47:11.674Z,96.28
2022-09-29T04:47:43.200Z,96.38
2022-09-29T04:48:14.998Z,96.41
2022-09-29T04:48:46.535Z,96.33
2022-09-29T04:49:19.072Z,96.33
2022-09-29T04:49:50.701Z,96.32
2022-09-29T04:50:22.706Z,96.27
2022-09-29T04:50:55.030Z,96.19
2022-09-29T04:51:26.568Z,96.16
2022-09-29T04:51:58.080Z,96.31
2022-09-29T04:52:29.577Z,96.31
2022-09-29T04:53:01.159Z,96.54
2022-09-29T04:53:32.807Z,96.47
2022-09-29T04:54:04.573Z,96.16
2022-09-29T04:54:38.054Z,96.11
2022-09-29T04:55:13.377Z,96.08
2022-09-29T04:55:44.941Z,96.04
2022-09-29T04:56:16.467Z,96.10
2022-09-29T04:56:49.383Z,96.14
2022-09-29T04:57:20.919Z,96.11
2022-09-29T04:57:52.723Z,96.05
2022-09-29T04:58:24.269Z,96.17
2022-09-29T04:58:55.780Z,96.16
2022-09-29T04:59:28.277Z,96.19
2022-09-29T04:59:59.817Z,96.25
2022-09-29T05:00:32.756Z,96.31
2022-09-29T05:01:09.358Z,96.37
2022-09-29T05:01:40.937Z,96.41
2022-09-29T05:02:12.557Z,96.59
2022-09-29T05:02:48.917Z,96.63
2022-09-29T05:03:21.362Z,96.39
2022-09-29T05:03:53.447Z,96.33
2022-09-29T05:04:25.048Z,96.18
2022-09-29T05:04:56.656Z,96.39
2022-09-29T05:05:28.212Z,96.35
2022-09-29T05:05:59.755Z,96.27
2022-09-29T05:06:31.279Z,96.23
2022-09-29T05:07:03.080Z,96.37
2022-09-29T05:07:35.248Z,96.51
2022-09-29T05:08:06.981Z,96.87
2022-09-29T05:08:38.579Z,96.96
2022-09-29T05:09:10.138Z,96.74
2022-09-29T05:09:41.653Z,96.84
2022-09-29T05:10:13.173Z,97.01
2022-09-29T05:10:47.907Z,96.85
2022-09-29T05:11:19.431Z,96.86
2022-09-29T05:11:51.001Z,96.88
2022-09-29T05:12:22.506Z,96.90
2022-09-29T05:12:54.159Z,97.07
2022-09-29T05:13:25.746Z,96.94
2022-09-29T05:13:58.023Z,97.04
2022-09-29T05:14:29.593Z,97.05
2022-09-29T05:15:01.473Z,96.98
2022-09-29T05:15:33.076Z,96.99
2022-09-29T05:16:05.087Z,97.20
2022-09-29T05:16:36.780Z,97.11
2022-09-29T05:17:08.429Z,97.08
2022-09-29T05:17:39.934Z,97.18
2022-09-29T05:18:11.435Z,97.24
2022-09-29T05:18:42.966Z,97.48
2022-09-29T05:19:14.586Z,97.59
2022-09-29T05:19:46.205Z,97.46
2022-09-29T05:20:17.727Z,97.36
2022-09-29T05:21:05.680Z,97.47
2022-09-29T05:21:40.761Z,97.47
2022-09-29T05:22:12.377Z,97.50
2022-09-29T05:22:43.900Z,97.35
2022-09-29T05:23:15.417Z,97.24
2022-09-29T05:23:46.952Z,97.37
2022-09-29T05:24:18.459Z,97.32
2022-09-29T05:24:53.309Z,97.36
2022-09-29T05:25:24.942Z,97.43
2022-09-29T05:26:01.585Z,97.44
2022-09-29T05:26:33.106Z,97.25
2022-09-29T05:27:04.711Z,97.05
2022-09-29T05:27:37.605Z,97.13
2022-09-29T05:28:09.490Z,97.14
2022-09-29T05:28:47.278Z,97.33
2022-09-29T05:29:18.990Z,97.39
2022-09-29T05:29:50.623Z,97.33
2022-09-29T05:30:22.118Z,97.25
2022-09-29T05:30:53.727Z,97.26
2022-09-29T05:31:25.345Z,97.08
2022-09-29T05:31:57.058Z,97.06
2022-09-29T05:32:28.634Z,97.27
2022-09-29T05:33:00.141Z,97.16
2022-09-29T05:33:31.673Z,97.36
2022-09-29T05:34:03.215Z,97.42
2022-09-29T05:34:34.720Z,97.43
2022-09-29T05:35:06.995Z,97.25
2022-09-29T05:35:38.574Z,97.19
2022-09-29T05:36:12.358Z,97.25
2022-09-29T05:36:44.258Z,97.25
2022-09-29T05:37:15.823Z,97.24
2022-09-29T05:37:47.358Z,97.21
2022-09-29T05:38:18.887Z,97.21
2022-09-29T05:38:50.807Z,97.36
2022-09-29T05:39:22.317Z,97.23
2022-09-29T05:39:53.868Z,97.01
2022-09-29T05:40:25.474Z,96.96
2022-09-29T05:40:57.113Z,96.94
2022-09-29T05:41:28.704Z,97.21
2022-09-29T05:42:02.479Z,97.44
2022-09-29T05:42:34.016Z,97.20
2022-09-29T05:43:05.772Z,97.49
2022-09-29T05:43:37.457Z,97.45
2022-09-29T05:44:09.026Z,97.39
2022-09-29T05:44:40.543Z,97.47
2022-09-29T05:45:12.056Z,97.53
2022-09-29T05:45:43.734Z,97.58
2022-09-29T05:46:16.950Z,97.46
2022-09-29T05:46:48.612Z,97.56
2022-09-29T05:47:20.173Z,97.38
2022-09-29T05:47:51.734Z,97.63
2022-09-29T05:48:23.257Z,97.08
2022-09-29T05:48:54.869Z,97.07
2022-09-29T05:49:26.866Z,96.84
2022-09-29T05:49:58.366Z,97.23
2022-09-29T05:50:29.886Z,97.36
2022-09-29T05:51:09.971Z,97.46
2022-09-29T05:51:41.467Z,97.39
2022-09-29T05:52:12.997Z,97.31
2022-09-29T05:52:48.681Z,97.14
2022-09-29T05:53:20.210Z,96.84
2022-09-29T05:53:52.124Z,97.26
2022-09-29T05:54:24.146Z,97.59
2022-09-29T05:54:55.662Z,97.00
2022-09-29T05:55:27.177Z,96.94
2022-09-29T05:55:58.718Z,97.16
2022-09-29T05:56:30.239Z,97.10
2022-09-29T05:57:01.758Z,97.34
2022-09-29T05:57:33.278Z,97.14
2022-09-29T05:58:06.386Z,97.33
2022-09-29T05:58:39.364Z,97.22
2022-09-29T05:59:11.043Z,97.25
2022-09-29T05:59:42.625Z,97.31
2022-09-29T06:00:14.262Z,97.06
2022-09-29T06:00:46.625Z,97.10
2022-09-29T06:01:21.501Z,97.19
2022-09-29T06:01:53.147Z,97.03
2022-09-29T06:02:24.806Z,97.20
2022-09-29T06:02:59.041Z,97.47
2022-09-29T06:03:30.538Z,97.32
2022-09-29T06:04:02.522Z,97.17
2022-09-29T06:04:38.581Z,97.28
2022-09-29T06:05:12.170Z,97.29
2022-09-29T06:05:43.740Z,97.14
2022-09-29T06:06:19.221Z,97.16
2022-09-29T06:06:50.910Z,97.01
2022-09-29T06:07:22.427Z,96.96
2022-09-29T06:07:54.216Z,96.84
2022-09-29T06:08:25.723Z,96.99
2022-09-29T06:08:58.462Z,97.01
2022-09-29T06:09:29.993Z,97.09
2022-09-29T06:10:01.601Z,97.05
2022-09-29T06:10:34.150Z,97.09
2022-09-29T06:11:08.005Z,97.03
2022-09-29T06:11:39.576Z,97.15
2022-09-29T06:12:11.078Z,97.15
2022-09-29T06:12:42.617Z,97.31
2022-09-29T06:13:14.138Z,97.15
2022-09-29T06:13:47.981Z,97.03
2022-09-29T06:14:19.538Z,97.17
2022-09-29T06:14:51.038Z,97.05
2022-09-29T06:15:23.354Z,97.30
2022-09-29T06:15:54.866Z,97.33
2022-09-29T06:16:29.106Z,97.47
2022-09-29T06:17:00.678Z,97.55
2022-09-29T06:17:33.040Z,97.67
2022-09-29T06:18:04.612Z,97.75
2022-09-29T06:18:36.828Z,97.72
2022-09-29T06:19:08.338Z,97.83
2022-09-29T06:19:44.540Z,97.92
2022-09-29T06:20:17.013Z,97.88
2022-09-29T06:20:48.620Z,97.75
2022-09-29T06:21:26.422Z,97.54
2022-09-29T06:21:57.977Z,97.76
2022-09-29T06:22:29.539Z,97.50
2022-09-29T06:23:01.074Z,97.43
2022-09-29T06:23:33.412Z,97.39
2022-09-29T06:24:07.172Z,97.42
2022-09-29T06:24:38.716Z,97.49
2022-09-29T06:25:10.306Z,97.59
2022-09-29T06:25:41.850Z,97.64
2022-09-29T06:26:20.163Z,97.49
2022-09-29T06:26:54.404Z,97.39
2022-09-29T06:27:26.002Z,97.30
2022-09-29T06:27:57.503Z,97.51
2022-09-29T06:28:29.527Z,97.75
2022-09-29T06:29:01.428Z,97.68
2022-09-29T06:29:33.065Z,97.89
2022-09-29T06:30:05.715Z,97.96
2022-09-29T06:30:37.450Z,97.93
2022-09-29T06:31:15.187Z,98.03
2022-09-29T06:31:47.301Z,98.11
2022-09-29T06:32:18.914Z,97.92
2022-09-29T06:32:50.468Z,97.88
2022-09-29T06:33:22.017Z,97.96
2022-09-29T06:33:58.458Z,97.68
2022-09-29T06:34:29.997Z,97.51
2022-09-29T06:35:20.164Z,97.61
2022-09-29T06:36:10.007Z,97.54
2022-09-29T06:37:02.214Z,97.53
2022-09-29T06:37:36.307Z,97.47
2022-09-29T06:38:07.992Z,97.49
2022-09-29T06:38:39.607Z,97.54
2022-09-29T06:39:13.461Z,97.39
2022-09-29T06:39:45.008Z,97.23
2022-09-29T06:40:16.583Z,97.31
2022-09-29T06:40:48.120Z,97.23
2022-09-29T06:41:20.738Z,97.22
2022-09-29T06:41:54.410Z,97.21
2022-09-29T06:42:26.253Z,97.05
2022-09-29T06:42:57.787Z,97.31
2022-09-29T06:43:29.361Z,97.17
2022-09-29T06:44:01.821Z,96.97
2022-09-29T06:44:33.327Z,96.93
2022-09-29T06:45:05.717Z,96.87
2022-09-29T06:45:37.282Z,96.87
2022-09-29T06:46:08.860Z,97.02
2022-09-29T06:46:40.471Z,97.07
2022-09-29T06:47:12.031Z,97.00
2022-09-29T06:47:43.546Z,96.93
2022-09-29T06:48:15.102Z,96.90
2022-09-29T06:48:46.916Z,96.80
2022-09-29T06:49:19.611Z,96.89
2022-09-29T06:49:58.487Z,96.73
2022-09-29T06:50:42.036Z,96.66
2022-09-29T06:51:14.790Z,96.94
2022-09-29T06:51:46.959Z,96.82
2022-09-29T06:52:21.261Z,96.92
2022-09-29T06:53:03.349Z,96.76
2022-09-29T06:53:38.590Z,96.74
2022-09-29T06:54:15.556Z,96.75
2022-09-29T06:54:47.279Z,96.83
2022-09-29T06:55:19.100Z,96.80
2022-09-29T06:55:55.870Z,96.84
2022-09-29T06:56:27.422Z,96.91
2022-09-29T06:57:00.883Z,96.90
2022-09-29T06:57:32.477Z,96.97
2022-09-29T06:58:04.626Z,96.88
2022-09-29T06:58:36.185Z,96.72
2022-09-29T06:59:07.919Z,96.81
2022-09-29T06:59:39.704Z,96.82
2022-09-29T07:00:11.728Z,96.60
2022-09-29T07:00:45.873Z,96.66
2022-09-29T07:01:19.149Z,96.46
2022-09-29T07:01:51.617Z,96.36
2022-09-29T07:02:23.518Z,96.67
2022-09-29T07:02:55.137Z,96.55
2022-09-29T07:03:26.667Z,96.98
2022-09-29T07:04:00.723Z,96.87
2022-09-29T07:04:32.274Z,96.55
2022-09-29T07:05:04.014Z,96.61
2022-09-29T07:05:35.964Z,96.70
2022-09-29T07:06:19.423Z,96.80
2022-09-29T07:06:52.038Z,96.76
2022-09-29T07:07:23.573Z,96.35
2022-09-29T07:08:00.644Z,96.33
2022-09-29T07:08:35.201Z,96.25
2022-09-29T07:09:06.782Z,96.56
2022-09-29T07:09:38.347Z,96.18
2022-09-29T07:10:10.084Z,96.18
2022-09-29T07:10:42.260Z,95.95
2022-09-29T07:11:13.878Z,96.15
2022-09-29T07:11:47.834Z,96.20
2022-09-29T07:12:20.298Z,96.06
2022-09-29T07:12:52.002Z,95.98
2022-09-29T07:13:23.517Z,95.98
2022-09-29T07:13:55.396Z,96.20
2022-09-29T07:14:26.927Z,95.93
2022-09-29T07:14:58.476Z,95.83
2022-09-29T07:15:32.589Z,95.70
2022-09-29T07:16:09.324Z,96.03
2022-09-29T07:16:41.038Z,95.76
2022-09-29T07:17:13.617Z,96.07
2022-09-29T07:17:45.138Z,96.14
2022-09-29T07:18:16.680Z,96.07
2022-09-29T07:18:48.772Z,95.98
2022-09-29T07:19:20.712Z,95.53
2022-09-29T07:19:54.788Z,95.05
2022-09-29T07:20:26.883Z,94.78
2022-09-29T07:20:58.417Z,94.58
2022-09-29T07:21:29.945Z,95.07
2022-09-29T07:22:01.638Z,94.67
2022-09-29T07:22:33.179Z,94.92
2022-09-29T07:23:04.744Z,94.65
2022-09-29T07:23:37.306Z,94.82
2022-09-29T07:24:09.501Z,94.89
2022-09-29T07:24:43.044Z,95.16
2022-09-29T07:25:27.888Z,95.04
2022-09-29T07:26:06.992Z,95.33
2022-09-29T07:26:38.817Z,95.03
2022-09-29T07:27:10.352Z,95.03
2022-09-29T07:27:42.077Z,94.58
2022-09-29T07:28:13.767Z,94.57
2022-09-29T07:28:46.972Z,93.95
2022-09-29T07:29:18.687Z,94.32